createdAt,value
2018-03-15T00:01:20.214Z,81.40
2018-03-15T00:03:54.759Z,81.50
2018-03-15T00:06:29.412Z,81.60
2018-03-15T00:09:04.601Z,81.60
2018-03-15T00:11:39.094Z,81.90
2018-03-15T00:14:13.532Z,81.60
2018-03-15T00:16:48.136Z,81.70
2018-03-15T00:19:22.729Z,81.80
2018-03-15T00:21:57.409Z,81.90
2018-03-15T00:24:32.018Z,81.80
2018-03-15T00:27:06.847Z,81.80
2018-03-15T00:29:41.170Z,81.70
2018-03-15T00:32:16.001Z,82.00
2018-03-15T00:34:50.758Z,81.90
2018-03-15T00:37:25.337Z,82.00
2018-03-15T00:39:59.852Z,82.20
2018-03-15T00:42:35.423Z,81.70
2018-03-15T00:45:09.856Z,82.20
2018-03-15T00:47:44.457Z,82.40
2018-03-15T00:50:18.952Z,82.60
2018-03-15T00:52:53.497Z,82.70
2018-03-15T00:55:28.841Z,82.80
2018-03-15T00:58:04.183Z,82.70
2018-03-15T01:00:39.539Z,82.90
2018-03-15T01:03:14.048Z,82.90
2018-03-15T01:05:49.202Z,82.80
2018-03-15T01:08:23.715Z,82.90
2018-03-15T01:10:59.016Z,82.90
2018-03-15T01:13:33.680Z,82.90
2018-03-15T01:16:08.834Z,82.50
2018-03-15T01:18:44.177Z,82.00
2018-03-15T01:21:18.969Z,82.00
2018-03-15T01:23:53.616Z,82.30
2018-03-15T01:26:28.752Z,82.00
2018-03-15T01:29:04.305Z,82.10
2018-03-15T01:31:38.804Z,82.10
2018-03-15T01:34:14.373Z,82.10
2018-03-15T01:36:48.831Z,82.60
2018-03-15T01:39:23.413Z,82.50
2018-03-15T01:41:57.809Z,82.40
2018-03-15T01:44:32.480Z,83.00
2018-03-15T01:47:07.011Z,83.10
2018-03-15T01:49:41.712Z,83.00
2018-03-15T01:52:16.166Z,83.40
2018-03-15T01:54:50.714Z,83.60
2018-03-15T01:57:25.984Z,84.00
2018-03-15T02:00:00.625Z,84.00
2018-03-15T02:02:35.076Z,84.00
2018-03-15T02:05:10.489Z,84.60
2018-03-15T02:07:44.909Z,83.60
2018-03-15T02:10:19.533Z,83.70
2018-03-15T02:12:54.633Z,83.70
2018-03-15T02:15:29.052Z,83.40
2018-03-15T02:18:04.111Z,83.70
2018-03-15T02:20:38.889Z,83.80
2018-03-15T02:23:13.197Z,83.50
2018-03-15T02:25:47.696Z,83.40
2018-03-15T02:28:22.836Z,83.30
2018-03-15T02:30:57.361Z,83.30
2018-03-15T02:33:32.488Z,82.90
2018-03-15T02:36:07.836Z,83.90
2018-03-15T02:38:42.242Z,83.10
2018-03-15T02:41:16.884Z,82.90
2018-03-15T02:43:51.162Z,83.00
2018-03-15T02:46:26.544Z,82.50
2018-03-15T02:49:01.088Z,82.50
2018-03-15T02:51:35.618Z,82.50
2018-03-15T02:54:10.085Z,82.70
2018-03-15T02:56:45.049Z,83.00
2018-03-15T02:59:19.588Z,82.50
2018-03-15T03:01:54.709Z,82.40
2018-03-15T03:04:29.109Z,82.50
2018-03-15T03:07:03.758Z,82.50
2018-03-15T03:09:38.215Z,82.70
2018-03-15T03:12:12.809Z,82.90
2018-03-15T03:14:47.318Z,82.30
2018-03-15T03:17:22.034Z,82.90
2018-03-15T03:19:56.756Z,82.30
2018-03-15T03:22:31.853Z,82.50
2018-03-15T03:25:06.853Z,82.70
2018-03-15T03:27:41.590Z,82.60
2018-03-15T03:30:16.190Z,82.40
2018-03-15T03:32:50.833Z,82.30
2018-03-15T03:35:25.144Z,82.80
2018-03-15T03:37:59.892Z,82.80
2018-03-15T03:40:35.578Z,82.70
2018-03-15T03:43:09.945Z,82.70
2018-03-15T03:45:44.329Z,82.30
2018-03-15T03:48:19.957Z,83.10
2018-03-15T03:50:54.265Z,83.00
2018-03-15T03:53:28.861Z,82.80
2018-03-15T03:56:03.240Z,82.20
2018-03-15T03:58:38.532Z,82.20
2018-03-15T04:01:12.936Z,82.60
2018-03-15T04:03:47.573Z,82.40
2018-03-15T04:06:22.228Z,82.60
2018-03-15T04:08:56.831Z,82.30
2018-03-15T04:11:32.013Z,82.10
2018-03-15T04:14:06.610Z,82.00
2018-03-15T04:16:42.148Z,82.00
2018-03-15T04:19:18.604Z,81.90
2018-03-15T04:21:53.095Z,81.90
2018-03-15T04:24:27.857Z,82.10
2018-03-15T04:27:03.069Z,82.10
2018-03-15T04:29:38.533Z,82.00
2018-03-15T04:32:13.084Z,82.10
2018-03-15T04:34:47.541Z,81.80
2018-03-15T04:37:22.104Z,81.80
2018-03-15T04:39:57.436Z,81.70
2018-03-15T04:42:32.006Z,81.70
2018-03-15T04:45:06.504Z,81.80
2018-03-15T04:47:41.747Z,81.60
2018-03-15T04:50:16.451Z,81.50
2018-03-15T04:52:50.908Z,81.90
2018-03-15T04:55:25.436Z,81.60
2018-03-15T04:58:00.260Z,81.30
2018-03-15T05:00:35.569Z,81.10
2018-03-15T05:03:10.213Z,81.00
2018-03-15T05:05:44.831Z,81.40
2018-03-15T05:08:19.356Z,80.90
2018-03-15T05:10:54.620Z,80.80
2018-03-15T05:13:30.772Z,80.50
2018-03-15T05:16:05.281Z,80.50
2018-03-15T05:18:39.720Z,80.60
2018-03-15T05:21:15.293Z,80.60
2018-03-15T05:23:50.617Z,80.80
2018-03-15T05:26:26.045Z,80.70
2018-03-15T05:29:00.645Z,80.10
2018-03-15T05:31:35.099Z,80.00
2018-03-15T05:34:09.478Z,80.00
2018-03-15T05:36:44.187Z,79.60
2018-03-15T05:39:19.469Z,80.10
2018-03-15T05:41:54.613Z,80.00
2018-03-15T05:44:29.045Z,80.40
2018-03-15T05:47:03.654Z,80.30
2018-03-15T05:49:38.321Z,79.80
2018-03-15T05:52:12.903Z,79.30
2018-03-15T05:54:47.512Z,79.60
2018-03-15T05:57:22.162Z,79.40
2018-03-15T05:59:56.580Z,79.40
2018-03-15T06:02:31.409Z,79.30
2018-03-15T06:05:05.960Z,79.40
2018-03-15T06:07:40.454Z,79.40
2018-03-15T06:10:14.862Z,79.20
2018-03-15T06:12:50.525Z,79.40
2018-03-15T06:15:25.071Z,79.50
2018-03-15T06:18:00.190Z,79.10
2018-03-15T06:20:34.706Z,79.10
2018-03-15T06:23:09.226Z,78.80
2018-03-15T06:25:43.532Z,78.90
2018-03-15T06:28:18.081Z,78.70
2018-03-15T06:30:52.514Z,78.40
2018-03-15T06:33:27.128Z,77.50
2018-03-15T06:36:01.586Z,77.30
2018-03-15T06:38:36.170Z,76.60
2018-03-15T06:41:10.617Z,76.10
2018-03-15T06:43:45.213Z,76.10
2018-03-15T06:46:19.673Z,76.10
2018-03-15T06:48:54.234Z,76.20
2018-03-15T06:51:28.772Z,76.20
2018-03-15T06:54:03.921Z,76.40
2018-03-15T06:56:38.435Z,76.40
2018-03-15T06:59:13.164Z,76.80
2018-03-15T07:01:48.000Z,76.10
2018-03-15T07:04:22.637Z,76.10
2018-03-15T07:06:57.230Z,75.40
2018-03-15T07:09:32.493Z,74.40
2018-03-15T07:12:06.896Z,75.80
2018-03-15T07:14:41.342Z,75.10
2018-03-15T07:17:15.773Z,73.70
2018-03-15T07:19:50.385Z,73.40
2018-03-15T07:22:24.792Z,73.30
2018-03-15T07:25:00.046Z,74.20
2018-03-15T07:27:34.620Z,74.20
2018-03-15T07:30:09.089Z,74.30
2018-03-15T07:32:44.328Z,72.90
2018-03-15T07:35:18.956Z,72.80
2018-03-15T07:37:54.322Z,71.70
2018-03-15T07:40:29.025Z,71.60
2018-03-15T07:43:03.573Z,72.00
2018-03-15T07:45:38.072Z,71.80
2018-03-15T07:48:12.493Z,71.70
2018-03-15T07:50:47.201Z,72.50
2018-03-15T07:53:21.528Z,73.10
2018-03-15T07:55:56.180Z,73.20
2018-03-15T07:58:31.697Z,72.70
2018-03-15T08:01:06.166Z,72.70
2018-03-15T08:03:40.573Z,73.30
2018-03-15T08:06:15.903Z,73.50
2018-03-15T08:08:50.509Z,72.70
2018-03-15T08:11:25.205Z,72.30
2018-03-15T08:13:59.696Z,72.00
2018-03-15T08:16:34.204Z,71.30
2018-03-15T08:19:08.730Z,71.00
2018-03-15T08:21:44.268Z,70.00
2018-03-15T08:24:19.327Z,70.00
2018-03-15T08:26:53.932Z,69.30
2018-03-15T08:29:28.440Z,69.10
2018-03-15T08:32:03.820Z,68.80
2018-03-15T08:34:39.149Z,66.80
2018-03-15T08:37:13.888Z,66.80
2018-03-15T08:39:48.460Z,66.50
2018-03-15T08:42:22.909Z,67.20
2018-03-15T08:44:57.332Z,66.40
2018-03-15T08:47:31.963Z,67.00
2018-03-15T08:50:06.674Z,67.00
2018-03-15T08:52:42.642Z,65.80
2018-03-15T08:55:17.170Z,65.80
2018-03-15T08:57:53.525Z,65.60
2018-03-15T09:00:27.880Z,65.60
2018-03-15T09:03:02.392Z,65.60
2018-03-15T09:05:36.793Z,66.00
2018-03-15T09:08:11.427Z,66.50
2018-03-15T09:10:46.043Z,67.30
2018-03-15T09:13:20.676Z,67.50
2018-03-15T09:15:55.214Z,67.40
2018-03-15T09:18:29.722Z,67.80
2018-03-15T09:21:04.256Z,67.60
2018-03-15T09:23:38.811Z,68.20
2018-03-15T09:26:13.311Z,67.90
2018-03-15T09:28:48.630Z,67.40
2018-03-15T09:31:23.152Z,68.00
2018-03-15T09:33:57.685Z,68.50
2018-03-15T09:36:32.198Z,68.70
2018-03-15T09:39:06.732Z,69.00
2018-03-15T09:41:41.242Z,68.70
2018-03-15T09:44:15.983Z,67.80
2018-03-15T09:46:50.452Z,68.10
2018-03-15T09:49:25.018Z,68.80
2018-03-15T09:51:59.772Z,67.90
2018-03-15T09:54:34.477Z,68.00
2018-03-15T09:57:09.346Z,67.60
2018-03-15T09:59:44.548Z,67.90
2018-03-15T10:02:18.945Z,68.00
2018-03-15T10:04:53.593Z,67.90
2018-03-15T10:07:28.115Z,68.20
2018-03-15T10:10:02.850Z,68.60
2018-03-15T10:12:37.357Z,69.10
2018-03-15T10:15:18.308Z,68.70
2018-03-15T10:17:52.761Z,69.70
2018-03-15T10:20:27.291Z,69.80
2018-03-15T10:23:01.821Z,69.00
2018-03-15T10:25:36.333Z,69.20
2018-03-15T10:28:11.673Z,68.80
2018-03-15T10:30:46.812Z,68.80
2018-03-15T10:33:26.944Z,69.20
2018-03-15T10:36:01.539Z,69.10
2018-03-15T10:38:36.041Z,70.00
2018-03-15T10:41:10.652Z,69.40
2018-03-15T10:43:45.078Z,69.80
2018-03-15T10:46:19.689Z,69.60
2018-03-15T10:48:54.289Z,69.60
2018-03-15T10:51:28.713Z,70.30
2018-03-15T10:54:03.980Z,70.30
2018-03-15T10:56:38.397Z,70.30
2018-03-15T10:59:13.537Z,70.20
2018-03-15T11:01:49.898Z,70.90
2018-03-15T11:04:29.956Z,69.60
2018-03-15T11:07:05.278Z,68.60
2018-03-15T11:09:39.652Z,68.60
2018-03-15T11:12:14.136Z,68.00
2018-03-15T11:14:48.663Z,68.00
2018-03-15T11:17:23.184Z,68.40
2018-03-15T11:19:57.708Z,68.50
2018-03-15T11:22:32.227Z,68.40
2018-03-15T11:25:07.457Z,68.10
2018-03-15T11:27:42.716Z,68.10
2018-03-15T11:30:17.168Z,68.10
2018-03-15T11:32:51.761Z,67.60
2018-03-15T11:35:26.584Z,67.00
2018-03-15T11:38:01.197Z,66.20
2018-03-15T11:40:35.662Z,67.30
2018-03-15T11:43:10.873Z,67.50
2018-03-15T11:45:45.294Z,69.00
2018-03-15T11:48:19.724Z,69.80
2018-03-15T11:50:54.285Z,70.90
2018-03-15T11:53:28.782Z,71.40
2018-03-15T11:56:04.094Z,71.90
2018-03-15T11:58:38.629Z,71.70
2018-03-15T12:01:13.127Z,71.50
2018-03-15T12:03:47.881Z,71.70
2018-03-15T12:06:22.291Z,72.50
2018-03-15T12:08:57.044Z,72.40
2018-03-15T12:11:31.836Z,71.80
2018-03-15T12:14:07.414Z,71.60
2018-03-15T12:16:41.766Z,71.50
2018-03-15T12:19:16.253Z,71.60
2018-03-15T12:21:50.646Z,72.30
2018-03-15T12:24:25.082Z,72.50
2018-03-15T12:26:59.448Z,72.60
2018-03-15T12:29:34.568Z,72.60
2018-03-15T12:32:09.061Z,72.80
2018-03-15T12:34:44.413Z,72.80
2018-03-15T12:37:18.923Z,72.60
2018-03-15T12:39:53.472Z,72.80
2018-03-15T12:42:28.493Z,72.50
2018-03-15T12:45:03.539Z,72.10
2018-03-15T12:47:38.089Z,72.40
2018-03-15T12:50:12.785Z,72.60
2018-03-15T12:52:47.283Z,73.10
2018-03-15T12:55:21.834Z,72.50
2018-03-15T12:57:57.093Z,72.00
2018-03-15T13:00:31.895Z,72.50
2018-03-15T13:03:06.500Z,72.70
2018-03-15T13:05:41.556Z,72.90
2018-03-15T13:08:16.103Z,72.90
2018-03-15T13:10:51.033Z,72.90
2018-03-15T13:13:25.421Z,73.10
2018-03-15T13:16:00.061Z,73.90
2018-03-15T13:18:34.464Z,74.10
2018-03-15T13:21:11.154Z,74.20
2018-03-15T13:23:45.611Z,74.00
2018-03-15T13:26:20.207Z,73.70
2018-03-15T13:28:54.847Z,73.90
2018-03-15T13:31:29.473Z,74.30
2018-03-15T13:34:04.015Z,74.70
2018-03-15T13:36:39.116Z,74.70
2018-03-15T13:39:13.422Z,74.70
2018-03-15T13:41:47.965Z,74.60
2018-03-15T13:44:22.377Z,74.60
2018-03-15T13:46:56.905Z,74.60
2018-03-15T13:49:31.857Z,74.80
2018-03-15T13:52:06.533Z,74.70
2018-03-15T13:54:41.069Z,74.50
2018-03-15T13:57:15.504Z,74.10
2018-03-15T13:59:49.970Z,74.20
2018-03-15T14:02:24.453Z,74.50
2018-03-15T14:04:59.181Z,75.00
2018-03-15T14:07:33.919Z,75.20
2018-03-15T14:10:08.437Z,75.10
2018-03-15T14:12:43.570Z,75.20
2018-03-15T14:15:17.989Z,75.30
2018-03-15T14:17:52.843Z,75.10
2018-03-15T14:20:27.260Z,75.00
2018-03-15T14:23:02.068Z,75.00
2018-03-15T14:25:36.509Z,74.60
2018-03-15T14:28:11.119Z,74.50
2018-03-15T14:30:45.508Z,73.90
2018-03-15T14:33:20.245Z,73.80
2018-03-15T14:35:54.699Z,74.10
2018-03-15T14:38:29.422Z,74.30
2018-03-15T14:41:05.673Z,74.50
2018-03-15T14:43:40.504Z,74.50
2018-03-15T14:46:15.045Z,74.30
2018-03-15T14:48:49.759Z,74.00
2018-03-15T14:51:25.491Z,73.60
2018-03-15T14:54:00.237Z,73.60
2018-03-15T14:56:36.117Z,73.40
2018-03-15T14:59:10.719Z,73.40
2018-03-15T15:01:45.341Z,73.10
2018-03-15T15:04:20.300Z,73.00
2018-03-15T15:06:54.843Z,72.90
2018-03-15T15:09:29.637Z,72.80
2018-03-15T15:12:04.669Z,72.20
2018-03-15T15:14:39.313Z,72.00
2018-03-15T15:17:13.753Z,72.60
2018-03-15T15:19:48.338Z,71.60
2018-03-15T15:22:22.878Z,71.50
2018-03-15T15:24:58.413Z,71.60
2018-03-15T15:27:32.932Z,71.50
2018-03-15T15:30:07.505Z,71.30
2018-03-15T15:32:42.592Z,71.40
2018-03-15T15:35:17.268Z,71.00
2018-03-15T15:37:52.344Z,70.80
2018-03-15T15:40:26.983Z,70.70
2018-03-15T15:43:02.227Z,70.30
2018-03-15T15:45:36.849Z,70.60
2018-03-15T15:48:11.396Z,70.50
2018-03-15T15:50:46.106Z,70.50
2018-03-15T15:53:20.840Z,70.30
2018-03-15T15:55:56.369Z,70.40
2018-03-15T15:58:30.792Z,70.10
2018-03-15T16:01:05.416Z,70.40
2018-03-15T16:03:40.752Z,70.40
2018-03-15T16:06:15.297Z,70.10
2018-03-15T16:08:50.289Z,70.30
2018-03-15T16:11:25.568Z,70.30
2018-03-15T16:13:59.949Z,70.10
2018-03-15T16:16:34.676Z,70.60
2018-03-15T16:19:10.572Z,70.30
2018-03-15T16:21:45.904Z,70.30
2018-03-15T16:24:20.424Z,70.10
2018-03-15T16:26:54.972Z,69.90
2018-03-15T16:29:29.399Z,70.00
2018-03-15T16:32:03.879Z,69.50
2018-03-15T16:34:38.241Z,70.00
2018-03-15T16:37:12.845Z,70.10
2018-03-15T16:39:47.301Z,70.00
2018-03-15T16:42:22.506Z,69.90
2018-03-15T16:44:56.904Z,70.60
2018-03-15T16:47:31.544Z,69.70
2018-03-15T16:50:05.905Z,69.40
2018-03-15T16:52:40.364Z,69.60
2018-03-15T16:55:14.785Z,69.80
2018-03-15T16:57:49.350Z,70.20
2018-03-15T17:00:23.749Z,70.50
2018-03-15T17:02:58.377Z,70.70
2018-03-15T17:05:32.823Z,71.60
2018-03-15T17:08:07.436Z,71.30
2018-03-15T17:10:41.955Z,71.60
2018-03-15T17:13:16.570Z,71.60
2018-03-15T17:15:50.992Z,72.00
2018-03-15T17:18:25.632Z,72.20
2018-03-15T17:21:00.059Z,72.20
2018-03-15T17:23:34.565Z,72.30
2018-03-15T17:26:09.133Z,72.30
2018-03-15T17:28:43.634Z,72.30
2018-03-15T17:31:18.029Z,72.50
2018-03-15T17:33:52.657Z,72.60
2018-03-15T17:36:27.042Z,72.30
2018-03-15T17:39:01.517Z,72.20
2018-03-15T17:41:36.793Z,72.20
2018-03-15T17:44:11.389Z,72.30
2018-03-15T17:46:46.028Z,72.20
2018-03-15T17:49:20.681Z,71.80
2018-03-15T17:51:55.356Z,71.70
2018-03-15T17:54:29.905Z,71.70
2018-03-15T17:57:04.401Z,71.70
2018-03-15T17:59:39.221Z,71.40
2018-03-15T18:02:13.760Z,71.50
2018-03-15T18:04:48.717Z,71.20
2018-03-15T18:07:24.459Z,71.30
2018-03-15T18:09:59.181Z,71.20
2018-03-15T18:12:34.354Z,71.20
2018-03-15T18:15:09.727Z,71.70
2018-03-15T18:17:44.443Z,71.00
2018-03-15T18:20:19.101Z,70.90
2018-03-15T18:22:53.845Z,70.90
2018-03-15T18:25:28.509Z,70.70
2018-03-15T18:28:03.114Z,70.50
2018-03-15T18:30:37.915Z,70.60
2018-03-15T18:33:12.469Z,70.60
2018-03-15T18:35:46.782Z,70.50
2018-03-15T18:38:21.538Z,70.70
2018-03-15T18:40:56.304Z,70.60
2018-03-15T18:43:31.556Z,70.60
2018-03-15T18:46:06.173Z,70.60
2018-03-15T18:48:40.771Z,70.50
2018-03-15T18:51:15.439Z,70.50
2018-03-15T18:53:49.946Z,70.30
2018-03-15T18:56:24.748Z,70.10
2018-03-15T18:59:00.486Z,70.20
2018-03-15T19:01:34.986Z,70.10
2018-03-15T19:04:09.535Z,70.00
2018-03-15T19:06:44.022Z,70.10
2018-03-15T19:09:18.809Z,69.90
2018-03-15T19:11:53.393Z,69.80
2018-03-15T19:14:28.581Z,69.70
2018-03-15T19:17:03.073Z,70.40
2018-03-15T19:19:37.392Z,69.90
2018-03-15T19:22:17.084Z,69.80
2018-03-15T19:24:54.929Z,69.80
2018-03-15T19:27:37.293Z,69.90
2018-03-15T19:30:11.831Z,69.70
2018-03-15T19:32:47.130Z,69.90
2018-03-15T19:35:21.719Z,69.90
2018-03-15T19:37:56.406Z,70.00
2018-03-15T19:40:31.538Z,70.10
2018-03-15T19:43:06.294Z,70.10
2018-03-15T19:45:40.673Z,69.90
2018-03-15T19:48:15.557Z,70.10
2018-03-15T19:50:50.317Z,70.30
2018-03-15T19:53:24.850Z,70.20
2018-03-15T19:55:59.263Z,69.90
2018-03-15T19:58:33.829Z,70.20
2018-03-15T20:01:08.259Z,70.20
2018-03-15T20:03:42.663Z,70.00
2018-03-15T20:06:16.980Z,70.20
2018-03-15T20:08:51.710Z,70.50
2018-03-15T20:11:26.231Z,70.40
2018-03-15T20:14:00.979Z,70.40
2018-03-15T20:16:35.477Z,70.40
2018-03-15T20:19:15.528Z,70.80
2018-03-15T20:21:49.957Z,70.50
2018-03-15T20:24:31.049Z,70.50
2018-03-15T20:27:06.050Z,70.90
2018-03-15T20:29:41.444Z,71.30
2018-03-15T20:32:22.215Z,70.90
2018-03-15T20:34:57.212Z,70.90
2018-03-15T20:37:31.805Z,70.70
2018-03-15T20:40:11.662Z,70.50
2018-03-15T20:42:46.204Z,70.50
2018-03-15T20:45:26.360Z,70.70
2018-03-15T20:48:06.302Z,70.50
2018-03-15T20:50:41.148Z,70.90
2018-03-15T20:53:15.540Z,70.70
2018-03-15T20:55:50.065Z,70.80
2018-03-15T20:58:25.329Z,71.30
2018-03-15T21:00:59.886Z,70.40
2018-03-15T21:03:34.319Z,70.80
2018-03-15T21:06:08.929Z,70.70
2018-03-15T21:08:43.956Z,70.40
2018-03-15T21:11:18.768Z,70.70
2018-03-15T21:13:53.909Z,71.00
2018-03-15T21:16:28.636Z,70.90
2018-03-15T21:19:03.156Z,71.10
2018-03-15T21:21:37.707Z,71.20
2018-03-15T21:24:12.626Z,71.20
2018-03-15T21:26:47.636Z,71.30
2018-03-15T21:29:22.018Z,71.40
2018-03-15T21:31:57.912Z,71.30
2018-03-15T21:34:32.246Z,71.60
2018-03-15T21:37:07.485Z,71.70
2018-03-15T21:39:43.346Z,71.90
2018-03-15T21:42:18.222Z,71.90
2018-03-15T21:44:52.754Z,71.80
2018-03-15T21:47:27.148Z,72.10
2018-03-15T21:50:02.396Z,71.50
2018-03-15T21:52:37.487Z,72.60
2018-03-15T21:55:11.938Z,72.50
2018-03-15T21:57:47.230Z,73.00
2018-03-15T22:00:21.749Z,72.90
2018-03-15T22:02:56.397Z,72.90
2018-03-15T22:05:30.797Z,72.90
2018-03-15T22:08:05.140Z,72.80
2018-03-15T22:10:40.328Z,72.80
2018-03-15T22:13:14.693Z,72.90
2018-03-15T22:15:49.261Z,72.80
2018-03-15T22:18:23.736Z,72.80
2018-03-15T22:20:58.225Z,72.90
2018-03-15T22:23:32.899Z,72.90
2018-03-15T22:26:07.918Z,72.80
2018-03-15T22:28:42.450Z,73.00
2018-03-15T22:31:17.027Z,72.90
2018-03-15T22:33:51.705Z,72.80
2018-03-15T22:36:26.082Z,73.00
2018-03-15T22:39:00.748Z,73.00
2018-03-15T22:41:35.185Z,72.90
2018-03-15T22:44:09.808Z,72.90
2018-03-15T22:46:45.569Z,73.60
2018-03-15T22:49:20.272Z,73.50
2018-03-15T22:51:54.697Z,73.00
2018-03-15T22:54:29.325Z,72.80
2018-03-15T22:57:04.918Z,73.40
2018-03-15T22:59:39.419Z,73.00
2018-03-15T23:02:13.792Z,73.20
2018-03-15T23:04:48.439Z,73.20
2018-03-15T23:07:22.949Z,73.00
2018-03-15T23:09:57.689Z,73.00
2018-03-15T23:12:32.185Z,73.20
2018-03-15T23:15:07.424Z,73.30
2018-03-15T23:17:41.877Z,73.20
2018-03-15T23:20:17.021Z,73.30
2018-03-15T23:22:51.462Z,73.20
2018-03-15T23:25:26.063Z,73.00
2018-03-15T23:28:00.745Z,73.00
2018-03-15T23:30:35.415Z,73.30
2018-03-15T23:33:10.581Z,73.60
2018-03-15T23:35:45.397Z,73.50
2018-03-15T23:38:21.136Z,73.70
2018-03-15T23:40:55.862Z,73.40
2018-03-15T23:43:30.301Z,73.40
2018-03-15T23:46:05.308Z,73.20
2018-03-15T23:48:40.100Z,73.50
2018-03-15T23:51:14.572Z,73.20
2018-03-15T23:53:50.000Z,73.40
2018-03-15T23:56:24.586Z,73.30
2018-03-15T23:58:59.101Z,73.30
